createdAt,value
2023-05-07T00:02:09.446Z,100487.88
2023-05-07T00:04:38.952Z,100479.66
2023-05-07T00:07:07.311Z,100405.16
2023-05-07T00:09:36.221Z,100445.16
2023-05-07T00:12:07.566Z,100405.50
2023-05-07T00:14:35.506Z,100466.94
2023-05-07T00:17:06.028Z,100460.31
2023-05-07T00:19:33.864Z,100432.28
2023-05-07T00:22:03.167Z,100431.00
2023-05-07T00:24:31.027Z,100254.94
2023-05-07T00:26:59.288Z,100384.22
2023-05-07T00:29:27.462Z,100467.91
2023-05-07T00:31:56.317Z,100474.03
2023-05-07T00:34:31.025Z,100484.50
2023-05-07T00:37:06.612Z,100485.13
2023-05-07T00:39:35.262Z,100453.03
2023-05-07T00:42:06.477Z,100457.56
2023-05-07T00:44:41.670Z,100512.41
2023-05-07T00:47:09.692Z,100464.97
2023-05-07T00:49:44.018Z,100464.47
2023-05-07T00:52:21.631Z,100475.28
2023-05-07T00:54:50.650Z,100526.41
2023-05-07T00:57:18.867Z,100514.63
2023-05-07T00:59:46.874Z,100514.59
2023-05-07T01:02:15.554Z,100534.97
2023-05-07T01:04:43.485Z,100510.91
2023-05-07T01:07:14.094Z,100546.72
2023-05-07T01:09:47.572Z,100532.69
2023-05-07T01:12:17.018Z,100532.19
2023-05-07T01:14:45.234Z,100497.66
2023-05-07T01:17:13.418Z,100548.47
2023-05-07T01:19:42.311Z,100540.09
2023-05-07T01:22:15.751Z,100535.69
2023-05-07T01:24:50.679Z,100576.69
2023-05-07T01:27:19.229Z,100566.50
2023-05-07T01:29:51.622Z,100584.91
2023-05-07T01:32:28.972Z,100585.22
2023-05-07T01:34:58.862Z,100528.56
2023-05-07T01:37:27.382Z,100523.91
2023-05-07T01:39:58.913Z,100543.78
2023-05-07T01:42:27.730Z,100570.88
2023-05-07T01:44:55.939Z,100544.59
2023-05-07T01:47:24.794Z,100568.31
2023-05-07T01:49:54.251Z,100506.19
2023-05-07T01:52:24.658Z,100490.34
2023-05-07T01:54:52.989Z,100576.06
2023-05-07T01:57:22.151Z,100546.66
2023-05-07T01:59:50.049Z,100569.75
2023-05-07T02:02:17.858Z,100543.75
2023-05-07T02:04:49.199Z,100536.69
2023-05-07T02:07:24.082Z,100559.25
2023-05-07T02:09:56.632Z,100530.97
2023-05-07T02:12:24.563Z,100558.94
2023-05-07T02:14:54.713Z,100534.56
2023-05-07T02:17:22.737Z,100505.16
2023-05-07T02:19:53.269Z,100572.47
2023-05-07T02:22:24.483Z,100508.88
2023-05-07T02:24:53.554Z,100539.88
2023-05-07T02:27:24.943Z,100569.91
2023-05-07T02:36:31.271Z,100574.59
2023-05-07T02:39:13.910Z,100483.94
2023-05-07T02:41:56.276Z,100401.84
2023-05-07T02:44:38.284Z,100306.06
2023-05-07T02:47:11.735Z,100359.13
2023-05-07T02:49:50.793Z,100479.28
2023-05-07T02:52:34.558Z,100428.59
2023-05-07T02:55:19.639Z,100321.16
2023-05-07T02:57:50.447Z,100575.88
2023-05-07T03:00:20.163Z,100581.34
2023-05-07T03:03:12.172Z,100489.38
2023-05-07T03:05:40.237Z,100555.53
2023-05-07T03:08:10.879Z,100558.97
2023-05-07T03:10:42.637Z,100538.94
2023-05-07T03:13:13.561Z,100503.91
2023-05-07T03:15:42.250Z,100564.75
2023-05-07T03:18:10.903Z,100553.94
2023-05-07T03:20:39.221Z,100529.91
2023-05-07T03:23:08.590Z,100534.91
2023-05-07T03:25:37.079Z,100541.03
2023-05-07T03:28:05.031Z,100541.84
2023-05-07T03:30:40.564Z,100507.00
2023-05-07T03:33:09.632Z,100528.47
2023-05-07T03:35:37.822Z,100504.59
2023-05-07T03:38:13.535Z,100506.56
2023-05-07T03:40:42.216Z,100493.81
2023-05-07T03:43:10.884Z,100485.78
2023-05-07T03:45:42.017Z,100459.78
2023-05-07T03:48:17.249Z,100469.81
2023-05-07T03:50:45.203Z,100481.44
2023-05-07T03:53:13.283Z,100492.53
2023-05-07T03:55:41.298Z,100493.34
2023-05-07T03:58:09.066Z,100499.50
2023-05-07T04:00:39.508Z,100478.16
2023-05-07T04:03:17.636Z,100330.91
2023-05-07T04:05:46.079Z,100505.28
2023-05-07T04:08:13.997Z,100502.56
2023-05-07T04:10:47.043Z,100445.75
2023-05-07T04:13:15.315Z,100478.34
2023-05-07T04:15:43.939Z,100470.13
2023-05-07T04:18:14.401Z,100517.38
2023-05-07T04:20:45.237Z,100512.72
2023-05-07T04:23:15.374Z,100494.31
2023-05-07T04:25:43.692Z,100510.25
2023-05-07T04:28:20.127Z,100514.13
2023-05-07T04:30:48.329Z,100521.53
2023-05-07T04:33:18.229Z,100475.25
2023-05-07T04:35:48.094Z,100488.16
2023-05-07T04:38:17.595Z,100513.16
2023-05-07T04:40:48.126Z,100511.22
2023-05-07T04:43:20.814Z,100520.22
2023-05-07T04:45:56.802Z,100476.00
2023-05-07T04:48:28.646Z,100421.28
2023-05-07T04:51:10.325Z,100527.66
2023-05-07T04:53:46.213Z,100488.72
2023-05-07T04:56:21.901Z,100499.91
2023-05-07T04:58:50.145Z,100544.25
2023-05-07T05:01:21.210Z,100470.28
2023-05-07T05:04:06.298Z,100551.50
2023-05-07T05:06:35.838Z,100516.66
2023-05-07T05:09:06.611Z,100561.50
2023-05-07T05:11:55.406Z,100512.09
2023-05-07T05:14:26.571Z,100508.25
2023-05-07T05:16:59.303Z,100530.03
2023-05-07T05:19:48.184Z,100537.75
2023-05-07T05:22:18.924Z,100531.28
2023-05-07T05:24:47.072Z,100566.97
2023-05-07T05:27:17.522Z,100541.94
2023-05-07T05:29:46.002Z,100569.22
2023-05-07T05:32:17.298Z,100568.88
2023-05-07T05:34:46.048Z,100550.44
2023-05-07T05:37:16.848Z,100570.31
2023-05-07T05:39:45.833Z,100582.75
2023-05-07T05:42:15.606Z,100590.81
2023-05-07T05:44:48.202Z,100560.13
2023-05-07T05:47:16.452Z,100594.88
2023-05-07T05:49:46.180Z,100585.63
2023-05-07T05:52:17.970Z,100619.69
2023-05-07T05:54:49.383Z,100597.88
2023-05-07T05:57:23.383Z,100618.06
2023-05-07T05:59:53.240Z,100556.53
2023-05-07T06:02:21.156Z,100587.66
2023-05-07T06:04:49.635Z,100609.47
2023-05-07T06:07:21.805Z,100594.94
2023-05-07T06:09:52.181Z,100625.44
2023-05-07T06:12:22.650Z,100611.41
2023-05-07T06:14:50.859Z,100582.00
2023-05-07T06:17:22.281Z,100595.41
2023-05-07T06:19:52.404Z,100632.25
2023-05-07T06:22:22.395Z,100609.34
2023-05-07T06:24:51.046Z,100614.97
2023-05-07T06:27:21.049Z,100593.50
2023-05-07T06:29:49.857Z,100632.72
2023-05-07T06:32:19.789Z,100621.72
2023-05-07T06:34:47.994Z,100653.69
2023-05-07T06:37:17.369Z,100637.34
2023-05-07T06:39:57.527Z,100674.34
2023-05-07T06:42:28.318Z,100666.38
2023-05-07T06:45:01.698Z,100685.78
2023-05-07T06:47:32.008Z,100664.94
2023-05-07T06:49:59.726Z,100698.84
2023-05-07T06:52:31.843Z,100662.19
2023-05-07T06:54:59.721Z,100675.47
2023-05-07T06:57:29.490Z,100654.28
2023-05-07T06:59:58.691Z,100652.56
2023-05-07T07:02:27.371Z,100694.13
2023-05-07T07:04:56.056Z,100696.53
2023-05-07T07:07:23.822Z,100673.88
2023-05-07T07:09:52.677Z,100721.59
2023-05-07T07:12:21.000Z,100677.03
2023-05-07T07:14:49.267Z,100712.09
2023-05-07T07:17:18.027Z,100709.03
2023-05-07T07:19:46.017Z,100703.41
2023-05-07T07:22:13.854Z,100692.25
2023-05-07T07:24:42.117Z,100697.09
2023-05-07T07:27:11.780Z,100693.00
2023-05-07T07:29:40.895Z,100703.47
2023-05-07T07:32:09.224Z,100694.66
2023-05-07T07:34:37.411Z,100676.13
2023-05-07T07:37:07.210Z,100711.66
2023-05-07T07:39:38.927Z,100710.13
2023-05-07T07:42:08.675Z,100691.09
2023-05-07T07:44:37.064Z,100693.75
2023-05-07T07:47:08.828Z,100692.56
2023-05-07T07:49:38.365Z,100704.56
2023-05-07T07:52:08.085Z,100713.50
2023-05-07T07:54:39.237Z,100693.03
2023-05-07T07:57:08.704Z,100716.41
2023-05-07T07:59:36.724Z,100682.81
2023-05-07T08:02:05.470Z,100669.94
2023-05-07T08:04:34.721Z,100708.06
2023-05-07T08:07:07.032Z,100729.72
2023-05-07T08:09:41.502Z,100696.69
2023-05-07T08:12:10.431Z,100726.84
2023-05-07T08:14:40.058Z,100701.50
2023-05-07T08:17:10.838Z,100699.25
2023-05-07T08:19:40.730Z,100690.88
2023-05-07T08:22:12.845Z,100687.00
2023-05-07T08:24:41.826Z,100690.56
2023-05-07T08:27:11.842Z,100700.44
2023-05-07T08:29:42.827Z,100712.56
2023-05-07T08:32:11.042Z,100677.81
2023-05-07T08:35:04.541Z,100732.72
2023-05-07T08:37:32.691Z,100696.66
2023-05-07T08:40:01.409Z,100707.63
2023-05-07T08:42:38.349Z,100747.25
2023-05-07T08:45:11.820Z,100748.84
2023-05-07T08:47:51.333Z,100748.69
2023-05-07T08:50:22.833Z,100746.25
2023-05-07T08:52:52.393Z,100756.75
2023-05-07T08:55:22.925Z,100754.81
2023-05-07T08:57:53.890Z,100740.28
2023-05-07T09:00:23.010Z,100761.63
2023-05-07T09:02:56.054Z,100764.88
2023-05-07T09:05:24.850Z,100745.25
2023-05-07T09:07:54.619Z,100709.25
2023-05-07T09:10:26.501Z,100732.31
2023-05-07T09:12:55.834Z,100736.38
2023-05-07T09:15:24.258Z,100748.50
2023-05-07T09:17:52.286Z,100757.72
2023-05-07T09:20:21.400Z,100780.56
2023-05-07T09:22:52.578Z,100751.13
2023-05-07T09:25:30.374Z,100762.72
2023-05-07T09:28:01.363Z,100744.63
2023-05-07T09:30:31.643Z,100763.13
2023-05-07T09:33:04.558Z,100770.09
2023-05-07T09:35:34.586Z,100760.91
2023-05-07T09:38:10.062Z,100765.41
2023-05-07T09:40:39.316Z,100774.94
2023-05-07T09:43:14.762Z,100768.34
2023-05-07T09:45:54.030Z,100746.69
2023-05-07T09:48:27.866Z,100761.75
2023-05-07T09:50:59.834Z,100728.75
2023-05-07T09:53:32.333Z,100723.38
2023-05-07T09:56:05.258Z,100749.53
2023-05-07T09:58:38.281Z,100765.59
2023-05-07T10:01:08.247Z,100771.09
2023-05-07T10:03:37.979Z,100770.91
2023-05-07T10:06:10.026Z,100764.72
2023-05-07T10:08:38.658Z,100740.31
2023-05-07T10:11:12.123Z,100754.28
2023-05-07T10:13:41.091Z,100760.13
2023-05-07T10:16:13.330Z,100725.00
2023-05-07T10:18:47.606Z,100748.81
2023-05-07T10:21:22.590Z,100770.94
2023-05-07T10:23:59.223Z,100776.09
2023-05-07T10:26:31.334Z,100772.88
2023-05-07T10:29:08.494Z,100751.84
2023-05-07T10:31:36.513Z,100769.81
2023-05-07T10:34:12.376Z,100747.34
2023-05-07T10:36:41.106Z,100749.66
2023-05-07T10:39:11.234Z,100758.88
2023-05-07T10:41:40.837Z,100732.41
2023-05-07T10:44:12.610Z,100743.56
2023-05-07T10:46:41.644Z,100735.94
2023-05-07T10:49:24.015Z,100741.00
2023-05-07T10:52:35.689Z,100762.81
2023-05-07T10:55:16.127Z,100754.75
2023-05-07T10:57:46.807Z,100755.56
2023-05-07T11:00:39.087Z,100758.31
2023-05-07T11:03:12.991Z,100760.25
2023-05-07T11:06:09.807Z,100743.91
2023-05-07T11:08:55.029Z,100734.91
2023-05-07T11:11:53.645Z,100743.78
2023-05-07T11:14:44.811Z,100741.53
2023-05-07T11:17:17.824Z,100713.91
2023-05-07T11:19:54.493Z,100735.88
2023-05-07T11:22:42.992Z,100746.06
2023-05-07T11:25:29.107Z,100730.03
2023-05-07T11:28:12.278Z,100717.94
2023-05-07T11:30:47.399Z,100745.25
2023-05-07T11:33:20.967Z,100758.50
2023-05-07T11:35:52.165Z,100748.50
2023-05-07T11:38:22.342Z,100712.47
2023-05-07T11:40:57.379Z,100759.53
2023-05-07T11:43:25.359Z,100743.34
2023-05-07T11:45:53.327Z,100750.78
2023-05-07T11:48:23.845Z,100759.22
2023-05-07T11:51:01.679Z,100702.00
2023-05-07T11:53:37.922Z,100738.31
2023-05-07T11:56:14.898Z,100766.31
2023-05-07T11:58:45.624Z,100715.56
2023-05-07T12:01:15.107Z,100749.97
2023-05-07T12:03:44.395Z,100757.91
2023-05-07T12:06:15.761Z,100762.94
2023-05-07T12:08:46.996Z,100712.81
2023-05-07T12:11:22.947Z,100730.41
2023-05-07T12:13:50.808Z,100754.13
2023-05-07T12:16:20.566Z,100740.75
2023-05-07T12:18:49.058Z,100743.81
2023-05-07T12:21:18.522Z,100752.53
2023-05-07T12:23:46.843Z,100753.09
2023-05-07T12:26:14.677Z,100706.19
2023-05-07T12:28:44.003Z,100659.28
2023-05-07T12:31:12.462Z,100738.00
2023-05-07T12:33:41.360Z,100737.88
2023-05-07T12:36:09.689Z,100742.38
2023-05-07T12:38:39.050Z,100756.66
2023-05-07T12:41:09.087Z,100730.56
2023-05-07T12:43:37.830Z,100751.94
2023-05-07T12:46:08.356Z,100753.53
2023-05-07T12:48:39.006Z,100756.63
2023-05-07T12:51:08.977Z,100701.97
2023-05-07T12:53:41.709Z,100759.47
2023-05-07T12:56:09.890Z,100731.81
2023-05-07T12:58:39.124Z,100759.94
2023-05-07T13:01:11.102Z,100755.44
2023-05-07T13:03:39.977Z,100762.66
2023-05-07T13:06:11.497Z,100744.72
2023-05-07T13:08:44.855Z,100770.22
2023-05-07T13:11:14.224Z,100762.44
2023-05-07T13:13:42.958Z,100781.72
2023-05-07T13:16:12.378Z,100792.69
2023-05-07T13:18:42.157Z,100767.44
2023-05-07T13:21:11.437Z,100762.59
2023-05-07T13:23:39.884Z,100739.81
2023-05-07T13:26:24.884Z,100775.34
2023-05-07T13:28:55.608Z,100745.66
2023-05-07T13:31:23.380Z,100770.22
2023-05-07T13:33:51.477Z,100780.56
2023-05-07T13:36:19.541Z,100717.69
2023-05-07T13:38:48.481Z,100779.13
2023-05-07T13:41:16.368Z,100788.97
2023-05-07T13:43:44.323Z,100752.81
2023-05-07T13:46:13.958Z,100732.41
2023-05-07T13:48:41.968Z,100749.34
2023-05-07T13:51:09.800Z,100764.38
2023-05-07T13:53:37.577Z,100766.03
2023-05-07T13:56:06.212Z,100770.22
2023-05-07T13:58:42.203Z,100777.34
2023-05-07T14:01:14.236Z,100778.97
2023-05-07T14:03:42.675Z,100740.00
2023-05-07T14:06:10.546Z,100740.16
2023-05-07T14:08:38.513Z,100760.19
2023-05-07T14:11:07.984Z,100760.66
2023-05-07T14:13:35.992Z,100777.09
2023-05-07T14:16:06.928Z,100786.25
2023-05-07T14:18:38.295Z,100742.38
2023-05-07T14:21:07.548Z,100591.38
2023-05-07T14:23:36.349Z,100763.00
2023-05-07T14:26:04.192Z,100748.59
2023-05-07T14:28:32.501Z,100758.16
2023-05-07T14:31:01.252Z,100728.50
2023-05-07T14:33:29.039Z,100776.63
2023-05-07T14:35:57.002Z,100755.22
2023-05-07T14:38:24.807Z,100772.06
2023-05-07T14:40:53.400Z,100778.19
2023-05-07T14:43:21.489Z,100767.03
2023-05-07T14:45:51.304Z,100718.03
2023-05-07T14:48:21.218Z,100733.09
2023-05-07T14:50:49.540Z,100770.81
2023-05-07T14:53:18.213Z,100743.69
2023-05-07T14:55:47.376Z,100747.34
2023-05-07T14:58:15.638Z,100742.34
2023-05-07T15:00:43.400Z,100757.22
2023-05-07T15:03:12.001Z,100778.25
2023-05-07T15:05:42.992Z,100743.50
2023-05-07T15:08:11.055Z,100750.63
2023-05-07T15:10:42.359Z,100732.84
2023-05-07T15:13:14.733Z,100764.69
2023-05-07T15:15:49.495Z,100772.41
2023-05-07T15:18:17.803Z,100735.03
2023-05-07T15:20:46.721Z,100736.91
2023-05-07T15:23:16.037Z,100765.25
2023-05-07T15:25:52.121Z,100754.81
2023-05-07T15:28:20.687Z,100755.31
2023-05-07T15:30:48.558Z,100733.34
2023-05-07T15:33:16.295Z,100746.69
2023-05-07T15:35:45.293Z,100706.22
2023-05-07T15:38:14.269Z,100735.84
2023-05-07T15:40:43.366Z,100778.19
2023-05-07T15:43:15.822Z,100795.59
2023-05-07T15:45:44.727Z,100787.66
2023-05-07T15:48:12.635Z,100780.69
2023-05-07T15:50:41.614Z,100742.53
2023-05-07T15:53:10.020Z,100758.81
2023-05-07T15:55:38.122Z,100753.00
2023-05-07T15:58:07.040Z,100767.22
2023-05-07T16:00:36.559Z,100773.19
2023-05-07T16:03:04.561Z,100749.94
2023-05-07T16:05:33.462Z,100716.41
2023-05-07T16:08:04.285Z,100779.31
2023-05-07T16:10:32.150Z,100773.97
2023-05-07T16:13:01.796Z,100791.66
2023-05-07T16:15:30.608Z,100801.16
2023-05-07T16:18:00.219Z,100810.28
2023-05-07T16:20:32.388Z,100780.81
2023-05-07T16:23:00.322Z,100750.69
2023-05-07T16:25:29.279Z,100798.16
2023-05-07T16:27:57.616Z,100800.69
2023-05-07T16:30:26.575Z,100745.59
2023-05-07T16:32:55.150Z,100729.44
2023-05-07T16:35:24.490Z,100831.63
2023-05-07T16:37:53.330Z,100838.75
2023-05-07T16:40:21.501Z,100829.63
2023-05-07T16:42:49.380Z,100845.88
2023-05-07T16:45:19.110Z,100781.91
2023-05-07T16:47:47.093Z,100857.38
2023-05-07T16:50:15.036Z,100861.41
2023-05-07T16:52:42.901Z,100813.75
2023-05-07T16:55:11.718Z,100866.41
2023-05-07T16:57:39.869Z,100809.22
2023-05-07T17:00:09.670Z,100850.81
2023-05-07T17:02:38.489Z,100868.97
2023-05-07T17:05:09.126Z,100863.13
2023-05-07T17:07:37.659Z,100896.94
2023-05-07T17:10:07.314Z,100899.34
2023-05-07T17:12:36.045Z,100848.94
2023-05-07T17:15:05.396Z,100879.03
2023-05-07T17:17:34.264Z,100843.09
2023-05-07T17:20:06.202Z,100876.66
2023-05-07T17:22:35.082Z,100851.38
2023-05-07T17:25:14.981Z,100903.09
2023-05-07T17:27:57.769Z,100895.69
2023-05-07T17:30:31.483Z,100904.41
2023-05-07T17:33:09.335Z,100868.66
2023-05-07T17:35:45.412Z,100883.25
2023-05-07T17:38:13.202Z,100861.44
2023-05-07T17:40:41.174Z,100839.31
2023-05-07T17:43:10.015Z,100850.31
2023-05-07T17:45:39.207Z,100871.16
2023-05-07T17:48:08.554Z,100869.50
2023-05-07T17:50:36.402Z,100855.81
2023-05-07T17:53:06.214Z,100810.13
2023-05-07T17:55:37.572Z,100866.81
2023-05-07T17:58:05.303Z,100866.50
2023-05-07T18:00:33.626Z,100856.50
2023-05-07T18:03:02.198Z,100864.41
2023-05-07T18:05:31.439Z,100832.00
2023-05-07T18:08:00.320Z,100878.97
2023-05-07T18:10:29.691Z,100900.25
2023-05-07T18:12:57.673Z,100901.88
2023-05-07T18:15:27.183Z,100904.94
2023-05-07T18:17:55.551Z,100896.50
2023-05-07T18:20:24.015Z,100866.28
2023-05-07T18:22:51.858Z,100877.09
2023-05-07T18:25:20.651Z,100837.38
2023-05-07T18:27:48.591Z,100866.63
2023-05-07T18:30:16.726Z,100876.59
2023-05-07T18:32:45.604Z,100837.75
2023-05-07T18:35:13.834Z,100863.59
2023-05-07T18:37:42.518Z,100873.00
2023-05-07T18:40:11.204Z,100859.69
2023-05-07T18:42:39.176Z,100836.00
2023-05-07T18:45:07.920Z,100870.22
2023-05-07T18:47:36.116Z,100859.28
2023-05-07T18:50:07.471Z,100813.59
2023-05-07T18:52:37.675Z,100843.31
2023-05-07T18:55:07.049Z,100833.06
2023-05-07T18:57:35.672Z,100806.63
2023-05-07T19:00:06.884Z,100784.44
2023-05-07T19:02:38.159Z,100811.34
2023-05-07T19:05:11.983Z,100721.78
2023-05-07T19:07:41.312Z,100722.91
2023-05-07T19:10:09.448Z,100848.50
2023-05-07T19:12:38.217Z,100729.44
2023-05-07T19:15:07.825Z,100775.72
2023-05-07T19:17:36.144Z,100664.81
2023-05-07T19:20:04.979Z,100787.31
2023-05-07T19:22:33.198Z,100658.88
2023-05-07T19:25:01.368Z,100660.03
2023-05-07T19:27:30.248Z,100767.28
2023-05-07T19:29:59.416Z,100752.50
2023-05-07T19:32:27.765Z,100843.25
2023-05-07T19:34:56.074Z,100799.38
2023-05-07T19:37:25.924Z,100813.06
2023-05-07T19:39:55.891Z,100758.28
2023-05-07T19:42:24.256Z,100821.47
2023-05-07T19:44:52.229Z,100891.66
2023-05-07T19:47:21.983Z,100766.72
2023-05-07T19:49:50.135Z,100745.78
2023-05-07T19:52:19.401Z,100900.72
2023-05-07T19:54:47.441Z,100755.38
2023-05-07T19:57:18.067Z,100803.09
2023-05-07T19:59:48.771Z,100766.22
2023-05-07T20:02:17.901Z,100809.06
2023-05-07T20:04:45.981Z,100887.91
2023-05-07T20:07:15.291Z,100791.66
2023-05-07T20:09:44.298Z,100717.41
2023-05-07T20:12:13.278Z,100690.88
2023-05-07T20:14:43.350Z,100898.63
2023-05-07T20:17:13.274Z,100811.22
2023-05-07T20:19:41.284Z,100919.69
2023-05-07T20:22:10.074Z,100916.38
2023-05-07T20:24:39.411Z,100801.38
2023-05-07T20:27:07.739Z,100949.91
2023-05-07T20:29:39.431Z,100955.28
2023-05-07T20:32:08.431Z,100787.56
2023-05-07T20:34:36.816Z,100860.94
2023-05-07T20:37:06.163Z,101000.00
2023-05-07T20:39:35.537Z,101013.78
2023-05-07T20:42:03.391Z,100961.41
2023-05-07T20:44:38.427Z,100947.91
2023-05-07T20:47:08.603Z,101009.75
2023-05-07T20:49:37.036Z,100950.72
2023-05-07T20:52:06.414Z,101007.50
2023-05-07T20:54:40.118Z,101017.03
2023-05-07T20:57:08.019Z,100965.75
2023-05-07T20:59:37.127Z,101015.31
2023-05-07T21:02:05.642Z,101007.91
2023-05-07T21:04:33.721Z,101025.88
2023-05-07T21:07:03.696Z,101016.53
2023-05-07T21:09:32.112Z,100993.91
2023-05-07T21:12:00.066Z,100998.81
2023-05-07T21:14:29.790Z,100973.25
2023-05-07T21:17:00.315Z,100976.50
2023-05-07T21:19:28.749Z,101016.75
2023-05-07T21:21:58.429Z,100943.22
2023-05-07T21:24:27.005Z,100980.34
2023-05-07T21:26:56.165Z,101025.28
2023-05-07T21:29:24.767Z,100968.16
2023-05-07T21:31:53.476Z,101021.94
2023-05-07T21:34:21.478Z,100964.72
2023-05-07T21:36:50.259Z,100999.53
2023-05-07T21:39:18.413Z,101033.06
2023-05-07T21:41:46.486Z,100955.72
2023-05-07T21:44:15.101Z,100991.31
2023-05-07T21:46:45.144Z,100993.53
2023-05-07T21:49:14.300Z,101000.72
2023-05-07T21:51:43.375Z,101006.03
2023-05-07T21:54:11.160Z,101004.19
2023-05-07T21:56:39.100Z,101005.00
2023-05-07T21:59:07.007Z,100971.41
2023-05-07T22:01:35.698Z,101024.47
2023-05-07T22:04:03.800Z,100957.63
2023-05-07T22:06:32.052Z,100974.78
2023-05-07T22:09:00.603Z,100978.44
2023-05-07T22:11:28.396Z,101031.66
2023-05-07T22:13:56.191Z,100970.84
2023-05-07T22:16:24.247Z,100989.69
2023-05-07T22:18:52.132Z,101000.44
2023-05-07T22:21:20.023Z,101002.44
2023-05-07T22:23:48.703Z,100997.28
2023-05-07T22:26:17.196Z,100961.19
2023-05-07T22:28:47.352Z,100991.81
2023-05-07T22:31:16.467Z,100958.75
2023-05-07T22:33:45.161Z,101005.91
2023-05-07T22:36:13.114Z,100974.78
2023-05-07T22:38:41.634Z,101015.91
2023-05-07T22:41:10.053Z,100948.31
2023-05-07T22:43:38.248Z,100999.22
2023-05-07T22:46:06.265Z,100993.72
2023-05-07T22:48:34.126Z,100972.34
2023-05-07T22:51:01.994Z,101011.06
2023-05-07T22:53:31.196Z,100968.41
2023-05-07T22:56:06.324Z,101005.69
2023-05-07T22:58:34.465Z,100955.59
2023-05-07T23:01:03.317Z,101014.03
2023-05-07T23:03:32.514Z,100977.84
2023-05-07T23:06:00.330Z,100993.94
2023-05-07T23:08:28.251Z,100985.22
2023-05-07T23:10:56.370Z,100997.09
2023-05-07T23:13:24.379Z,100985.34
2023-05-07T23:15:52.333Z,100983.41
2023-05-07T23:18:20.152Z,101014.53
2023-05-07T23:20:48.681Z,101001.22
2023-05-07T23:23:16.842Z,101009.84
2023-05-07T23:25:44.608Z,100977.53
2023-05-07T23:28:12.965Z,100947.06
2023-05-07T23:30:41.707Z,100969.00
2023-05-07T23:33:09.657Z,100974.38
2023-05-07T23:35:37.565Z,100982.78
2023-05-07T23:38:05.456Z,100973.03
2023-05-07T23:40:33.475Z,101004.88
2023-05-07T23:43:02.135Z,100988.44
2023-05-07T23:45:30.124Z,100988.06
2023-05-07T23:48:01.477Z,100967.56
2023-05-07T23:50:29.350Z,100971.81
2023-05-07T23:52:57.664Z,100964.50
2023-05-07T23:55:25.413Z,100969.56
2023-05-07T23:57:53.731Z,100906.00
